sensor_id;sensor_type;location;lat;lon;timestamp;temperature;humidity
17489;DHT22;8861;52.644;4.734;2024-03-22T00:00:48;10.30;99.90
17489;DHT22;8861;52.644;4.734;2024-03-22T00:03:15;10.20;99.90
17489;DHT22;8861;52.644;4.734;2024-03-22T00:05:41;10.20;99.90
17489;DHT22;8861;52.644;4.734;2024-03-22T00:08:07;10.20;99.90
17489;DHT22;8861;52.644;4.734;2024-03-22T00:10:36;10.20;99.90
17489;DHT22;8861;52.644;4.734;2024-03-22T00:13:08;10.20;99.90
17489;DHT22;8861;52.644;4.734;2024-03-22T00:15:34;10.20;99.90
17489;DHT22;8861;52.644;4.734;2024-03-22T00:18:02;10.20;99.90
17489;DHT22;8861;52.644;4.734;2024-03-22T00:20:27;10.20;99.90
17489;DHT22;8861;52.644;4.734;2024-03-22T00:22:55;10.20;99.90
17489;DHT22;8861;52.644;4.734;2024-03-22T00:25:21;10.20;99.90
17489;DHT22;8861;52.644;4.734;2024-03-22T00:27:49;10.20;99.90
17489;DHT22;8861;52.644;4.734;2024-03-22T00:30:15;10.20;99.90
17489;DHT22;8861;52.644;4.734;2024-03-22T00:32:42;10.20;99.90
17489;DHT22;8861;52.644;4.734;2024-03-22T00:35:10;10.20;99.90
17489;DHT22;8861;52.644;4.734;2024-03-22T00:37:36;10.20;99.90
17489;DHT22;8861;52.644;4.734;2024-03-22T00:40:03;10.20;99.90
17489;DHT22;8861;52.644;4.734;2024-03-22T00:42:31;10.20;99.90
17489;DHT22;8861;52.644;4.734;2024-03-22T00:44:58;10.20;99.90
17489;DHT22;8861;52.644;4.734;2024-03-22T00:47:25;10.20;99.90
17489;DHT22;8861;52.644;4.734;2024-03-22T00:49:51;10.20;99.90
17489;DHT22;8861;52.644;4.734;2024-03-22T00:52:18;10.20;99.90
17489;DHT22;8861;52.644;4.734;2024-03-22T00:54:44;10.20;99.90
17489;DHT22;8861;52.644;4.734;2024-03-22T00:57:11;10.20;99.90
17489;DHT22;8861;52.644;4.734;2024-03-22T00:59:36;10.20;99.90
17489;DHT22;8861;52.644;4.734;2024-03-22T01:02:05;10.20;99.90
17489;DHT22;8861;52.644;4.734;2024-03-22T01:04:31;10.20;99.90
17489;DHT22;8861;52.644;4.734;2024-03-22T01:06:59;10.20;99.90
17489;DHT22;8861;52.644;4.734;2024-03-22T01:09:25;10.20;99.90
17489;DHT22;8861;52.644;4.734;2024-03-22T01:11:52;10.20;99.90
17489;DHT22;8861;52.644;4.734;2024-03-22T01:14:18;10.20;99.90
17489;DHT22;8861;52.644;4.734;2024-03-22T01:16:45;10.20;99.90
17489;DHT22;8861;52.644;4.734;2024-03-22T01:19:12;10.20;99.90
17489;DHT22;8861;52.644;4.734;2024-03-22T01:21:39;10.20;99.90
17489;DHT22;8861;52.644;4.734;2024-03-22T01:24:05;10.20;99.90
17489;DHT22;8861;52.644;4.734;2024-03-22T01:26:32;10.20;99.90
17489;DHT22;8861;52.644;4.734;2024-03-22T01:28:58;10.20;99.90
17489;DHT22;8861;52.644;4.734;2024-03-22T01:31:25;10.20;99.90
17489;DHT22;8861;52.644;4.734;2024-03-22T01:33:51;10.20;99.90
17489;DHT22;8861;52.644;4.734;2024-03-22T01:36:19;10.20;99.90
17489;DHT22;8861;52.644;4.734;2024-03-22T01:38:45;10.20;99.90
17489;DHT22;8861;52.644;4.734;2024-03-22T01:41:12;10.20;99.90
17489;DHT22;8861;52.644;4.734;2024-03-22T01:43:38;10.20;99.90
17489;DHT22;8861;52.644;4.734;2024-03-22T01:46:07;10.20;99.90
17489;DHT22;8861;52.644;4.734;2024-03-22T01:48:34;10.20;99.90
17489;DHT22;8861;52.644;4.734;2024-03-22T01:53:38;10.20;99.90
17489;DHT22;8861;52.644;4.734;2024-03-22T01:56:07;10.10;99.90
17489;DHT22;8861;52.644;4.734;2024-03-22T01:58:33;10.10;99.90
17489;DHT22;8861;52.644;4.734;2024-03-22T02:01:00;10.10;99.90
17489;DHT22;8861;52.644;4.734;2024-03-22T02:03:26;10.10;99.90
17489;DHT22;8861;52.644;4.734;2024-03-22T02:05:53;10.10;99.90
17489;DHT22;8861;52.644;4.734;2024-03-22T02:08:19;10.10;99.90
17489;DHT22;8861;52.644;4.734;2024-03-22T02:10:47;10.10;99.90
17489;DHT22;8861;52.644;4.734;2024-03-22T02:15:39;10.10;99.90
17489;DHT22;8861;52.644;4.734;2024-03-22T02:18:06;10.10;99.90
17489;DHT22;8861;52.644;4.734;2024-03-22T02:20:32;10.10;99.90
17489;DHT22;8861;52.644;4.734;2024-03-22T02:22:59;10.10;99.90
17489;DHT22;8861;52.644;4.734;2024-03-22T02:25:26;10.00;99.90
17489;DHT22;8861;52.644;4.734;2024-03-22T02:27:53;10.00;99.90
17489;DHT22;8861;52.644;4.734;2024-03-22T02:30:19;10.00;99.90
17489;DHT22;8861;52.644;4.734;2024-03-22T02:32:46;10.00;99.90
17489;DHT22;8861;52.644;4.734;2024-03-22T02:35:11;10.00;99.90
17489;DHT22;8861;52.644;4.734;2024-03-22T02:37:38;10.00;99.90
17489;DHT22;8861;52.644;4.734;2024-03-22T02:40:05;10.00;99.90
17489;DHT22;8861;52.644;4.734;2024-03-22T02:42:34;10.00;99.90
17489;DHT22;8861;52.644;4.734;2024-03-22T02:45:00;10.00;99.90
17489;DHT22;8861;52.644;4.734;2024-03-22T02:47:26;10.00;99.90
17489;DHT22;8861;52.644;4.734;2024-03-22T02:49:52;10.00;99.90
17489;DHT22;8861;52.644;4.734;2024-03-22T02:52:19;10.00;99.90
17489;DHT22;8861;52.644;4.734;2024-03-22T02:54:45;10.00;99.90
17489;DHT22;8861;52.644;4.734;2024-03-22T02:57:12;10.00;99.90
17489;DHT22;8861;52.644;4.734;2024-03-22T02:59:39;10.10;99.90
17489;DHT22;8861;52.644;4.734;2024-03-22T03:02:06;10.10;99.90
17489;DHT22;8861;52.644;4.734;2024-03-22T03:04:32;10.00;99.90
17489;DHT22;8861;52.644;4.734;2024-03-22T03:06:59;10.10;99.90
17489;DHT22;8861;52.644;4.734;2024-03-22T03:09:25;10.10;99.90
17489;DHT22;8861;52.644;4.734;2024-03-22T03:11:52;10.10;99.90
17489;DHT22;8861;52.644;4.734;2024-03-22T03:14:18;10.10;99.90
17489;DHT22;8861;52.644;4.734;2024-03-22T03:16:46;10.10;99.90
17489;DHT22;8861;52.644;4.734;2024-03-22T03:19:12;10.10;99.90
17489;DHT22;8861;52.644;4.734;2024-03-22T03:21:38;10.10;99.90
17489;DHT22;8861;52.644;4.734;2024-03-22T03:24:05;10.10;99.90
17489;DHT22;8861;52.644;4.734;2024-03-22T03:26:32;10.10;99.90
17489;DHT22;8861;52.644;4.734;2024-03-22T03:28:58;10.20;99.90
17489;DHT22;8861;52.644;4.734;2024-03-22T03:31:25;10.10;99.90
17489;DHT22;8861;52.644;4.734;2024-03-22T03:33:52;10.20;99.90
17489;DHT22;8861;52.644;4.734;2024-03-22T03:36:19;10.20;99.90
17489;DHT22;8861;52.644;4.734;2024-03-22T03:38:45;10.10;99.90
17489;DHT22;8861;52.644;4.734;2024-03-22T03:41:12;10.20;99.90
17489;DHT22;8861;52.644;4.734;2024-03-22T03:43:38;10.20;99.90
17489;DHT22;8861;52.644;4.734;2024-03-22T03:46:04;10.10;99.90
17489;DHT22;8861;52.644;4.734;2024-03-22T03:48:30;10.10;99.90
17489;DHT22;8861;52.644;4.734;2024-03-22T03:50:59;10.20;99.90
17489;DHT22;8861;52.644;4.734;2024-03-22T03:53:28;10.20;99.90
17489;DHT22;8861;52.644;4.734;2024-03-22T03:55:55;10.10;99.90
17489;DHT22;8861;52.644;4.734;2024-03-22T03:58:21;10.10;99.90
17489;DHT22;8861;52.644;4.734;2024-03-22T04:00:48;10.10;99.90
17489;DHT22;8861;52.644;4.734;2024-03-22T04:03:14;10.10;99.90
17489;DHT22;8861;52.644;4.734;2024-03-22T04:05:41;10.10;99.90
17489;DHT22;8861;52.644;4.734;2024-03-22T04:08:08;10.10;99.90
17489;DHT22;8861;52.644;4.734;2024-03-22T04:10:35;10.10;99.90
17489;DHT22;8861;52.644;4.734;2024-03-22T04:13:01;10.10;99.90
17489;DHT22;8861;52.644;4.734;2024-03-22T04:15:28;10.10;99.90
17489;DHT22;8861;52.644;4.734;2024-03-22T04:17:56;10.10;99.90
17489;DHT22;8861;52.644;4.734;2024-03-22T04:20:23;10.10;99.90
17489;DHT22;8861;52.644;4.734;2024-03-22T04:22:49;10.10;99.90
17489;DHT22;8861;52.644;4.734;2024-03-22T04:25:19;10.10;99.90
17489;DHT22;8861;52.644;4.734;2024-03-22T04:27:45;10.10;99.90
17489;DHT22;8861;52.644;4.734;2024-03-22T04:30:12;10.10;99.90
17489;DHT22;8861;52.644;4.734;2024-03-22T04:32:38;10.10;99.90
17489;DHT22;8861;52.644;4.734;2024-03-22T04:35:05;10.10;99.90
17489;DHT22;8861;52.644;4.734;2024-03-22T04:37:31;10.10;99.90
17489;DHT22;8861;52.644;4.734;2024-03-22T04:39:58;10.10;99.90
17489;DHT22;8861;52.644;4.734;2024-03-22T04:42:27;10.10;99.90
17489;DHT22;8861;52.644;4.734;2024-03-22T04:44:54;10.10;99.90
17489;DHT22;8861;52.644;4.734;2024-03-22T04:47:21;10.10;99.90
17489;DHT22;8861;52.644;4.734;2024-03-22T04:49:46;10.10;99.90
17489;DHT22;8861;52.644;4.734;2024-03-22T04:52:13;10.20;99.90
17489;DHT22;8861;52.644;4.734;2024-03-22T04:54:39;10.20;99.90
17489;DHT22;8861;52.644;4.734;2024-03-22T04:57:07;10.20;99.90
17489;DHT22;8861;52.644;4.734;2024-03-22T04:59:34;10.20;99.90
17489;DHT22;8861;52.644;4.734;2024-03-22T05:02:01;10.20;99.90
17489;DHT22;8861;52.644;4.734;2024-03-22T05:04:27;10.20;99.90
17489;DHT22;8861;52.644;4.734;2024-03-22T05:06:54;10.20;99.90
17489;DHT22;8861;52.644;4.734;2024-03-22T05:09:20;10.20;99.90
17489;DHT22;8861;52.644;4.734;2024-03-22T05:11:47;10.20;99.90
17489;DHT22;8861;52.644;4.734;2024-03-22T05:14:16;10.20;99.90
17489;DHT22;8861;52.644;4.734;2024-03-22T05:16:44;10.20;99.90
17489;DHT22;8861;52.644;4.734;2024-03-22T05:19:10;10.30;99.90
17489;DHT22;8861;52.644;4.734;2024-03-22T05:21:37;10.20;99.90
17489;DHT22;8861;52.644;4.734;2024-03-22T05:24:04;10.20;99.90
17489;DHT22;8861;52.644;4.734;2024-03-22T05:26:31;10.20;99.90
17489;DHT22;8861;52.644;4.734;2024-03-22T05:29:01;10.20;99.90
17489;DHT22;8861;52.644;4.734;2024-03-22T05:31:29;10.20;99.90
17489;DHT22;8861;52.644;4.734;2024-03-22T05:33:56;10.20;99.90
17489;DHT22;8861;52.644;4.734;2024-03-22T05:36:23;10.30;99.90
17489;DHT22;8861;52.644;4.734;2024-03-22T05:38:49;10.30;99.90
17489;DHT22;8861;52.644;4.734;2024-03-22T05:41:16;10.30;99.90
17489;DHT22;8861;52.644;4.734;2024-03-22T05:43:42;10.30;99.90
17489;DHT22;8861;52.644;4.734;2024-03-22T05:46:09;10.30;99.90
17489;DHT22;8861;52.644;4.734;2024-03-22T05:48:34;10.30;99.90
17489;DHT22;8861;52.644;4.734;2024-03-22T05:51:03;10.20;99.90
17489;DHT22;8861;52.644;4.734;2024-03-22T05:53:29;10.30;99.90
17489;DHT22;8861;52.644;4.734;2024-03-22T05:55:56;10.30;99.90
17489;DHT22;8861;52.644;4.734;2024-03-22T05:58:22;10.20;99.90
17489;DHT22;8861;52.644;4.734;2024-03-22T06:00:49;10.30;99.90
17489;DHT22;8861;52.644;4.734;2024-03-22T06:03:15;10.30;99.90
17489;DHT22;8861;52.644;4.734;2024-03-22T06:05:42;10.30;99.90
17489;DHT22;8861;52.644;4.734;2024-03-22T06:08:09;10.30;99.90
17489;DHT22;8861;52.644;4.734;2024-03-22T06:10:36;10.30;99.90
17489;DHT22;8861;52.644;4.734;2024-03-22T06:13:02;10.30;99.90
17489;DHT22;8861;52.644;4.734;2024-03-22T06:15:30;10.30;99.90
17489;DHT22;8861;52.644;4.734;2024-03-22T06:17:55;10.30;99.90
17489;DHT22;8861;52.644;4.734;2024-03-22T06:20:22;10.30;99.90
17489;DHT22;8861;52.644;4.734;2024-03-22T06:22:48;10.30;99.90
17489;DHT22;8861;52.644;4.734;2024-03-22T06:25:17;10.30;99.90
17489;DHT22;8861;52.644;4.734;2024-03-22T06:27:43;10.30;99.90
17489;DHT22;8861;52.644;4.734;2024-03-22T06:30:11;10.30;99.90
17489;DHT22;8861;52.644;4.734;2024-03-22T06:32:36;10.30;99.90
17489;DHT22;8861;52.644;4.734;2024-03-22T06:35:04;10.30;99.90
17489;DHT22;8861;52.644;4.734;2024-03-22T06:37:31;10.30;99.90
17489;DHT22;8861;52.644;4.734;2024-03-22T06:39:58;10.30;99.90
17489;DHT22;8861;52.644;4.734;2024-03-22T06:42:25;10.30;99.90
17489;DHT22;8861;52.644;4.734;2024-03-22T06:44:52;10.30;99.90
17489;DHT22;8861;52.644;4.734;2024-03-22T06:47:18;10.30;99.90
17489;DHT22;8861;52.644;4.734;2024-03-22T06:49:46;10.30;99.90
17489;DHT22;8861;52.644;4.734;2024-03-22T06:52:12;10.30;99.90
17489;DHT22;8861;52.644;4.734;2024-03-22T06:54:39;10.30;99.90
17489;DHT22;8861;52.644;4.734;2024-03-22T06:57:05;10.30;99.90
17489;DHT22;8861;52.644;4.734;2024-03-22T06:59:34;10.30;99.90
17489;DHT22;8861;52.644;4.734;2024-03-22T07:02:00;10.30;99.90
17489;DHT22;8861;52.644;4.734;2024-03-22T07:04:26;10.30;99.90
17489;DHT22;8861;52.644;4.734;2024-03-22T07:06:52;10.40;99.90
17489;DHT22;8861;52.644;4.734;2024-03-22T07:09:19;10.40;99.90
17489;DHT22;8861;52.644;4.734;2024-03-22T07:11:46;10.40;99.90
17489;DHT22;8861;52.644;4.734;2024-03-22T07:14:13;10.40;99.90
17489;DHT22;8861;52.644;4.734;2024-03-22T07:16:40;10.40;99.90
17489;DHT22;8861;52.644;4.734;2024-03-22T07:19:07;10.40;99.90
17489;DHT22;8861;52.644;4.734;2024-03-22T07:21:33;10.40;99.90
17489;DHT22;8861;52.644;4.734;2024-03-22T07:24:00;10.40;99.90
17489;DHT22;8861;52.644;4.734;2024-03-22T07:26:25;10.50;99.90
17489;DHT22;8861;52.644;4.734;2024-03-22T07:28:52;10.50;99.90
17489;DHT22;8861;52.644;4.734;2024-03-22T07:31:18;10.50;99.90
17489;DHT22;8861;52.644;4.734;2024-03-22T07:33:46;10.50;99.90
17489;DHT22;8861;52.644;4.734;2024-03-22T07:36:15;10.40;99.90
17489;DHT22;8861;52.644;4.734;2024-03-22T07:38:42;10.40;99.90
17489;DHT22;8861;52.644;4.734;2024-03-22T07:41:07;10.40;99.90
17489;DHT22;8861;52.644;4.734;2024-03-22T07:43:34;10.40;99.90
17489;DHT22;8861;52.644;4.734;2024-03-22T07:46:00;10.40;99.90
17489;DHT22;8861;52.644;4.734;2024-03-22T07:48:27;10.40;99.90
17489;DHT22;8861;52.644;4.734;2024-03-22T07:50:57;10.40;99.90
17489;DHT22;8861;52.644;4.734;2024-03-22T07:53:24;10.40;99.90
17489;DHT22;8861;52.644;4.734;2024-03-22T07:55:50;10.40;99.90
17489;DHT22;8861;52.644;4.734;2024-03-22T07:58:17;10.40;99.90
17489;DHT22;8861;52.644;4.734;2024-03-22T08:00:43;10.40;99.90
17489;DHT22;8861;52.644;4.734;2024-03-22T08:03:14;10.40;99.90
17489;DHT22;8861;52.644;4.734;2024-03-22T08:05:41;10.40;99.90
17489;DHT22;8861;52.644;4.734;2024-03-22T08:08:09;10.40;99.90
17489;DHT22;8861;52.644;4.734;2024-03-22T08:10:35;10.40;99.90
17489;DHT22;8861;52.644;4.734;2024-03-22T08:13:02;10.30;99.90
17489;DHT22;8861;52.644;4.734;2024-03-22T08:15:28;10.20;99.90
17489;DHT22;8861;52.644;4.734;2024-03-22T08:17:55;10.10;99.90
17489;DHT22;8861;52.644;4.734;2024-03-22T08:20:23;10.10;99.90
17489;DHT22;8861;52.644;4.734;2024-03-22T08:22:51;10.00;99.90
17489;DHT22;8861;52.644;4.734;2024-03-22T08:25:18;9.90;99.90
17489;DHT22;8861;52.644;4.734;2024-03-22T08:27:46;9.90;99.90
17489;DHT22;8861;52.644;4.734;2024-03-22T08:30:13;9.80;99.90
17489;DHT22;8861;52.644;4.734;2024-03-22T08:32:39;9.80;99.90
17489;DHT22;8861;52.644;4.734;2024-03-22T08:35:06;9.80;99.90
17489;DHT22;8861;52.644;4.734;2024-03-22T08:37:33;9.80;99.90
17489;DHT22;8861;52.644;4.734;2024-03-22T08:39:59;9.80;99.90
17489;DHT22;8861;52.644;4.734;2024-03-22T08:42:28;9.70;99.90
17489;DHT22;8861;52.644;4.734;2024-03-22T08:44:54;9.70;99.90
17489;DHT22;8861;52.644;4.734;2024-03-22T08:47:22;9.70;99.90
17489;DHT22;8861;52.644;4.734;2024-03-22T08:49:49;9.70;99.90
17489;DHT22;8861;52.644;4.734;2024-03-22T08:52:16;9.70;99.90
17489;DHT22;8861;52.644;4.734;2024-03-22T08:54:41;9.70;99.90
17489;DHT22;8861;52.644;4.734;2024-03-22T08:57:09;9.70;99.90
17489;DHT22;8861;52.644;4.734;2024-03-22T08:59:36;9.70;99.90
17489;DHT22;8861;52.644;4.734;2024-03-22T09:02:03;9.70;99.90
17489;DHT22;8861;52.644;4.734;2024-03-22T09:04:29;9.70;99.90
17489;DHT22;8861;52.644;4.734;2024-03-22T09:06:56;9.70;99.90
17489;DHT22;8861;52.644;4.734;2024-03-22T09:09:23;9.70;99.90
17489;DHT22;8861;52.644;4.734;2024-03-22T09:11:50;9.80;99.90
17489;DHT22;8861;52.644;4.734;2024-03-22T09:14:16;9.80;99.90
17489;DHT22;8861;52.644;4.734;2024-03-22T09:16:45;9.80;99.90
17489;DHT22;8861;52.644;4.734;2024-03-22T09:19:11;9.80;99.90
17489;DHT22;8861;52.644;4.734;2024-03-22T09:21:38;9.90;99.90
17489;DHT22;8861;52.644;4.734;2024-03-22T09:24:04;9.90;99.90
17489;DHT22;8861;52.644;4.734;2024-03-22T09:26:32;9.90;99.90
17489;DHT22;8861;52.644;4.734;2024-03-22T09:28:58;9.90;99.90
17489;DHT22;8861;52.644;4.734;2024-03-22T09:31:25;9.90;99.90
17489;DHT22;8861;52.644;4.734;2024-03-22T09:33:53;9.90;99.90
17489;DHT22;8861;52.644;4.734;2024-03-22T09:36:20;9.90;99.90
17489;DHT22;8861;52.644;4.734;2024-03-22T09:38:47;10.00;99.90
17489;DHT22;8861;52.644;4.734;2024-03-22T09:41:14;10.00;99.90
17489;DHT22;8861;52.644;4.734;2024-03-22T09:43:42;10.00;99.90
17489;DHT22;8861;52.644;4.734;2024-03-22T09:46:11;9.90;99.90
17489;DHT22;8861;52.644;4.734;2024-03-22T09:48:41;9.90;99.90
17489;DHT22;8861;52.644;4.734;2024-03-22T09:51:10;9.90;99.90
17489;DHT22;8861;52.644;4.734;2024-03-22T09:53:37;9.90;99.90
17489;DHT22;8861;52.644;4.734;2024-03-22T09:56:05;9.90;99.90
17489;DHT22;8861;52.644;4.734;2024-03-22T09:58:32;9.90;99.90
17489;DHT22;8861;52.644;4.734;2024-03-22T10:00:59;9.90;99.90
17489;DHT22;8861;52.644;4.734;2024-03-22T10:03:27;9.90;99.90
17489;DHT22;8861;52.644;4.734;2024-03-22T10:05:52;9.90;99.90
17489;DHT22;8861;52.644;4.734;2024-03-22T10:08:22;9.90;99.90
17489;DHT22;8861;52.644;4.734;2024-03-22T10:10:48;9.90;99.90
17489;DHT22;8861;52.644;4.734;2024-03-22T10:13:15;10.00;99.90
17489;DHT22;8861;52.644;4.734;2024-03-22T10:15:41;10.00;99.90
17489;DHT22;8861;52.644;4.734;2024-03-22T10:18:09;10.00;99.90
17489;DHT22;8861;52.644;4.734;2024-03-22T10:20:35;10.00;99.90
17489;DHT22;8861;52.644;4.734;2024-03-22T10:23:03;10.00;99.90
17489;DHT22;8861;52.644;4.734;2024-03-22T10:25:30;10.10;99.90
17489;DHT22;8861;52.644;4.734;2024-03-22T10:27:58;10.10;99.90
17489;DHT22;8861;52.644;4.734;2024-03-22T10:30:25;10.10;99.90
17489;DHT22;8861;52.644;4.734;2024-03-22T10:32:52;10.00;99.90
17489;DHT22;8861;52.644;4.734;2024-03-22T10:35:18;10.00;99.90
17489;DHT22;8861;52.644;4.734;2024-03-22T10:37:45;10.00;99.90
17489;DHT22;8861;52.644;4.734;2024-03-22T10:40:12;10.00;99.90
17489;DHT22;8861;52.644;4.734;2024-03-22T10:42:41;10.00;99.90
17489;DHT22;8861;52.644;4.734;2024-03-22T10:45:09;10.10;99.90
17489;DHT22;8861;52.644;4.734;2024-03-22T10:47:37;10.00;99.90
17489;DHT22;8861;52.644;4.734;2024-03-22T10:50:05;10.00;99.90
17489;DHT22;8861;52.644;4.734;2024-03-22T10:52:38;10.10;99.90
17489;DHT22;8861;52.644;4.734;2024-03-22T10:55:08;10.10;99.90
17489;DHT22;8861;52.644;4.734;2024-03-22T10:57:37;10.10;99.90
17489;DHT22;8861;52.644;4.734;2024-03-22T11:00:09;10.00;99.90
17489;DHT22;8861;52.644;4.734;2024-03-22T11:02:36;10.10;99.90
17489;DHT22;8861;52.644;4.734;2024-03-22T11:05:03;10.10;99.90
17489;DHT22;8861;52.644;4.734;2024-03-22T11:07:31;10.10;99.90
17489;DHT22;8861;52.644;4.734;2024-03-22T11:09:57;10.10;99.90
17489;DHT22;8861;52.644;4.734;2024-03-22T11:12:25;10.10;99.90
17489;DHT22;8861;52.644;4.734;2024-03-22T11:14:52;10.20;99.90
17489;DHT22;8861;52.644;4.734;2024-03-22T11:17:20;10.20;99.90
17489;DHT22;8861;52.644;4.734;2024-03-22T11:19:50;10.20;99.90
17489;DHT22;8861;52.644;4.734;2024-03-22T11:22:17;10.30;99.90
17489;DHT22;8861;52.644;4.734;2024-03-22T11:24:43;10.30;99.90
17489;DHT22;8861;52.644;4.734;2024-03-22T11:27:10;10.30;99.90
17489;DHT22;8861;52.644;4.734;2024-03-22T11:29:36;10.30;99.90
17489;DHT22;8861;52.644;4.734;2024-03-22T11:32:05;10.30;99.90
17489;DHT22;8861;52.644;4.734;2024-03-22T11:34:32;10.30;99.90
17489;DHT22;8861;52.644;4.734;2024-03-22T11:36:59;10.40;99.90
17489;DHT22;8861;52.644;4.734;2024-03-22T11:39:25;10.50;99.90
17489;DHT22;8861;52.644;4.734;2024-03-22T11:41:52;10.50;99.90
17489;DHT22;8861;52.644;4.734;2024-03-22T11:44:18;10.50;99.90
17489;DHT22;8861;52.644;4.734;2024-03-22T11:46:46;10.50;99.90
17489;DHT22;8861;52.644;4.734;2024-03-22T11:49:13;10.60;99.90
17489;DHT22;8861;52.644;4.734;2024-03-22T11:51:41;10.60;99.90
17489;DHT22;8861;52.644;4.734;2024-03-22T11:54:07;10.60;99.90
17489;DHT22;8861;52.644;4.734;2024-03-22T11:56:35;10.60;99.90
17489;DHT22;8861;52.644;4.734;2024-03-22T11:59:01;10.70;99.90
17489;DHT22;8861;52.644;4.734;2024-03-22T12:01:29;10.70;99.90
17489;DHT22;8861;52.644;4.734;2024-03-22T12:03:55;10.70;99.90
17489;DHT22;8861;52.644;4.734;2024-03-22T12:06:22;10.70;99.90
17489;DHT22;8861;52.644;4.734;2024-03-22T12:08:49;10.70;99.90
17489;DHT22;8861;52.644;4.734;2024-03-22T12:11:17;10.80;99.90
17489;DHT22;8861;52.644;4.734;2024-03-22T12:13:43;10.70;99.90
17489;DHT22;8861;52.644;4.734;2024-03-22T12:16:10;10.70;99.90
17489;DHT22;8861;52.644;4.734;2024-03-22T12:18:36;10.70;99.90
17489;DHT22;8861;52.644;4.734;2024-03-22T12:21:03;10.70;99.90
17489;DHT22;8861;52.644;4.734;2024-03-22T12:23:29;10.70;99.90
17489;DHT22;8861;52.644;4.734;2024-03-22T12:25:58;10.70;99.90
17489;DHT22;8861;52.644;4.734;2024-03-22T12:28:24;10.70;99.90
17489;DHT22;8861;52.644;4.734;2024-03-22T12:30:51;10.70;99.90
17489;DHT22;8861;52.644;4.734;2024-03-22T12:33:17;10.70;99.90
17489;DHT22;8861;52.644;4.734;2024-03-22T12:35:44;10.70;99.90
17489;DHT22;8861;52.644;4.734;2024-03-22T12:38:10;10.80;99.90
17489;DHT22;8861;52.644;4.734;2024-03-22T12:40:39;10.80;99.90
17489;DHT22;8861;52.644;4.734;2024-03-22T12:45:34;11.00;99.90
17489;DHT22;8861;52.644;4.734;2024-03-22T12:48:01;11.10;99.90
17489;DHT22;8861;52.644;4.734;2024-03-22T12:50:27;11.10;99.90
17489;DHT22;8861;52.644;4.734;2024-03-22T12:52:54;11.10;99.90
17489;DHT22;8861;52.644;4.734;2024-03-22T12:55:20;11.20;99.90
17489;DHT22;8861;52.644;4.734;2024-03-22T12:57:47;11.20;99.90
17489;DHT22;8861;52.644;4.734;2024-03-22T13:00:14;11.20;99.90
17489;DHT22;8861;52.644;4.734;2024-03-22T13:02:45;11.10;99.90
17489;DHT22;8861;52.644;4.734;2024-03-22T13:05:13;11.10;99.90
17489;DHT22;8861;52.644;4.734;2024-03-22T13:07:40;11.20;99.90
17489;DHT22;8861;52.644;4.734;2024-03-22T13:10:08;11.20;99.90
17489;DHT22;8861;52.644;4.734;2024-03-22T13:12:35;11.30;99.90
17489;DHT22;8861;52.644;4.734;2024-03-22T13:15:01;11.40;99.90
17489;DHT22;8861;52.644;4.734;2024-03-22T13:17:29;11.40;99.90
17489;DHT22;8861;52.644;4.734;2024-03-22T13:19:56;11.30;99.90
17489;DHT22;8861;52.644;4.734;2024-03-22T13:22:23;11.20;99.90
17489;DHT22;8861;52.644;4.734;2024-03-22T13:24:49;11.10;99.90
17489;DHT22;8861;52.644;4.734;2024-03-22T13:27:16;11.10;99.90
17489;DHT22;8861;52.644;4.734;2024-03-22T13:29:43;11.10;99.90
17489;DHT22;8861;52.644;4.734;2024-03-22T13:32:09;11.10;99.90
17489;DHT22;8861;52.644;4.734;2024-03-22T13:34:36;11.00;99.90
17489;DHT22;8861;52.644;4.734;2024-03-22T13:37:05;11.00;99.90
17489;DHT22;8861;52.644;4.734;2024-03-22T13:39:32;11.00;99.90
17489;DHT22;8861;52.644;4.734;2024-03-22T13:41:59;11.00;99.90
17489;DHT22;8861;52.644;4.734;2024-03-22T13:44:25;11.00;99.90
17489;DHT22;8861;52.644;4.734;2024-03-22T13:46:53;11.00;99.90
17489;DHT22;8861;52.644;4.734;2024-03-22T13:49:19;11.10;99.90
17489;DHT22;8861;52.644;4.734;2024-03-22T13:51:47;11.10;99.90
17489;DHT22;8861;52.644;4.734;2024-03-22T13:54:15;11.20;99.90
17489;DHT22;8861;52.644;4.734;2024-03-22T13:56:42;11.30;99.90
17489;DHT22;8861;52.644;4.734;2024-03-22T13:59:08;11.30;99.90
17489;DHT22;8861;52.644;4.734;2024-03-22T14:01:36;11.30;99.90
17489;DHT22;8861;52.644;4.734;2024-03-22T14:04:03;11.30;99.90
17489;DHT22;8861;52.644;4.734;2024-03-22T14:06:30;11.20;99.90
17489;DHT22;8861;52.644;4.734;2024-03-22T14:08:56;11.10;99.90
17489;DHT22;8861;52.644;4.734;2024-03-22T14:11:28;11.00;99.90
17489;DHT22;8861;52.644;4.734;2024-03-22T14:13:56;11.00;99.90
17489;DHT22;8861;52.644;4.734;2024-03-22T14:16:23;11.00;99.90
17489;DHT22;8861;52.644;4.734;2024-03-22T14:18:49;11.00;99.90
17489;DHT22;8861;52.644;4.734;2024-03-22T14:21:16;11.00;99.90
17489;DHT22;8861;52.644;4.734;2024-03-22T14:23:47;11.00;99.90
17489;DHT22;8861;52.644;4.734;2024-03-22T14:26:15;10.90;99.90
17489;DHT22;8861;52.644;4.734;2024-03-22T14:28:43;10.90;99.90
17489;DHT22;8861;52.644;4.734;2024-03-22T14:31:11;10.90;99.90
17489;DHT22;8861;52.644;4.734;2024-03-22T14:33:37;10.90;99.90
17489;DHT22;8861;52.644;4.734;2024-03-22T14:36:06;10.90;99.90
17489;DHT22;8861;52.644;4.734;2024-03-22T14:38:33;11.00;99.90
17489;DHT22;8861;52.644;4.734;2024-03-22T14:41:00;11.00;99.90
17489;DHT22;8861;52.644;4.734;2024-03-22T14:43:26;11.00;99.90
17489;DHT22;8861;52.644;4.734;2024-03-22T14:45:55;11.10;99.90
17489;DHT22;8861;52.644;4.734;2024-03-22T14:48:21;11.20;99.90
17489;DHT22;8861;52.644;4.734;2024-03-22T14:50:49;11.10;99.90
17489;DHT22;8861;52.644;4.734;2024-03-22T14:53:16;11.20;99.90
17489;DHT22;8861;52.644;4.734;2024-03-22T14:55:51;11.10;99.90
17489;DHT22;8861;52.644;4.734;2024-03-22T14:58:17;11.00;99.90
17489;DHT22;8861;52.644;4.734;2024-03-22T15:00:51;10.80;99.90
17489;DHT22;8861;52.644;4.734;2024-03-22T15:03:19;10.80;99.90
17489;DHT22;8861;52.644;4.734;2024-03-22T15:05:45;10.70;99.90
17489;DHT22;8861;52.644;4.734;2024-03-22T15:08:11;10.70;99.90
17489;DHT22;8861;52.644;4.734;2024-03-22T15:10:38;10.60;99.90
17489;DHT22;8861;52.644;4.734;2024-03-22T15:13:05;10.60;99.90
17489;DHT22;8861;52.644;4.734;2024-03-22T15:15:32;10.60;99.90
17489;DHT22;8861;52.644;4.734;2024-03-22T15:17:58;10.60;99.90
17489;DHT22;8861;52.644;4.734;2024-03-22T15:20:27;10.60;99.90
17489;DHT22;8861;52.644;4.734;2024-03-22T15:22:53;10.60;99.90
17489;DHT22;8861;52.644;4.734;2024-03-22T15:25:20;10.60;99.90
17489;DHT22;8861;52.644;4.734;2024-03-22T15:27:45;10.50;99.90
17489;DHT22;8861;52.644;4.734;2024-03-22T15:30:13;10.50;99.90
17489;DHT22;8861;52.644;4.734;2024-03-22T15:32:39;10.60;99.90
17489;DHT22;8861;52.644;4.734;2024-03-22T15:35:07;10.60;99.90
17489;DHT22;8861;52.644;4.734;2024-03-22T15:37:34;10.60;99.90
17489;DHT22;8861;52.644;4.734;2024-03-22T15:40:01;10.70;99.90
17489;DHT22;8861;52.644;4.734;2024-03-22T15:42:27;10.80;99.90
17489;DHT22;8861;52.644;4.734;2024-03-22T15:44:54;10.90;99.90
17489;DHT22;8861;52.644;4.734;2024-03-22T15:47:20;10.90;99.90
17489;DHT22;8861;52.644;4.734;2024-03-22T15:49:47;10.80;99.90
17489;DHT22;8861;52.644;4.734;2024-03-22T15:52:13;10.80;99.90